createdAt,value
2023-01-18T00:01:30.784Z,91810.31
2023-01-18T00:03:58.138Z,91792.81
2023-01-18T00:06:27.964Z,91835.19
2023-01-18T00:08:55.555Z,91835.31
2023-01-18T00:11:57.224Z,91856.19
2023-01-18T00:14:24.349Z,91827.94
2023-01-18T00:16:51.494Z,91835.91
2023-01-18T00:19:28.161Z,91803.25
2023-01-18T00:22:03.304Z,91865.47
2023-01-18T00:24:33.236Z,91832.41
2023-01-18T00:27:00.399Z,91845.06
2023-01-18T00:29:27.642Z,91856.47
2023-01-18T00:31:55.594Z,91860.84
2023-01-18T00:34:30.717Z,91828.09
2023-01-18T00:36:57.922Z,91885.81
2023-01-18T00:39:25.945Z,91947.19
2023-01-18T00:42:13.892Z,91868.28
2023-01-18T00:44:53.627Z,91833.72
2023-01-18T00:47:20.805Z,91834.19
2023-01-18T00:49:48.031Z,91883.75
2023-01-18T00:52:16.343Z,91869.06
2023-01-18T00:54:43.452Z,91868.63
2023-01-18T00:57:10.503Z,91877.81
2023-01-18T00:59:37.711Z,91903.81
2023-01-18T01:02:05.022Z,91888.13
2023-01-18T01:04:50.955Z,91963.38
2023-01-18T01:07:18.037Z,91895.34
2023-01-18T01:09:45.868Z,91882.09
2023-01-18T01:12:31.192Z,91887.25
2023-01-18T01:15:16.849Z,91893.28
2023-01-18T01:18:02.817Z,91900.22
2023-01-18T01:20:48.295Z,91868.84
2023-01-18T01:23:39.303Z,91881.19
2023-01-18T01:26:13.719Z,91881.19
2023-01-18T01:28:43.128Z,91871.16
2023-01-18T01:31:14.523Z,91892.22
2023-01-18T01:33:41.960Z,91835.06
2023-01-18T01:36:14.069Z,91914.03
2023-01-18T01:38:44.596Z,91929.72
2023-01-18T01:41:18.109Z,91890.38
2023-01-18T01:43:46.824Z,91879.53
2023-01-18T01:46:40.293Z,91920.34
2023-01-18T01:49:15.411Z,91880.06
2023-01-18T01:51:44.561Z,91885.38
2023-01-18T01:54:29.649Z,91922.47
2023-01-18T01:57:06.211Z,91873.72
2023-01-18T01:59:37.826Z,91899.50
2023-01-18T02:02:05.499Z,91932.38
2023-01-18T02:04:33.789Z,91909.50
2023-01-18T02:07:03.466Z,91878.06
2023-01-18T02:09:32.984Z,91925.63
2023-01-18T02:12:03.729Z,91874.50
2023-01-18T02:14:34.813Z,91871.78
2023-01-18T02:17:37.150Z,91901.50
2023-01-18T02:20:30.298Z,91893.63
2023-01-18T02:23:31.631Z,91914.72
2023-01-18T02:26:31.403Z,91893.75
2023-01-18T02:29:25.570Z,91940.31
2023-01-18T02:32:11.257Z,91906.00
2023-01-18T02:34:49.277Z,91915.19
2023-01-18T02:37:53.365Z,91898.03
2023-01-18T02:40:58.788Z,91952.56
2023-01-18T02:43:44.994Z,91965.44
2023-01-18T02:46:32.891Z,91960.88
2023-01-18T02:49:19.684Z,91931.13
2023-01-18T02:51:46.621Z,91937.88
2023-01-18T02:54:27.273Z,91996.63
2023-01-18T02:56:55.560Z,91969.28
2023-01-18T02:59:36.422Z,91973.06
2023-01-18T03:02:07.728Z,91987.31
2023-01-18T03:04:38.930Z,91977.34
2023-01-18T03:07:11.930Z,91919.59
2023-01-18T03:09:42.292Z,91985.03
2023-01-18T03:12:19.331Z,91885.16
2023-01-18T03:14:57.500Z,91924.00
2023-01-18T03:17:42.286Z,91924.13
2023-01-18T03:20:16.233Z,91929.41
2023-01-18T03:23:09.118Z,91904.28
2023-01-18T03:25:45.062Z,91918.28
2023-01-18T03:28:35.505Z,91909.09
2023-01-18T03:31:25.202Z,91918.28
2023-01-18T03:34:06.551Z,91920.28
2023-01-18T03:36:36.253Z,91925.91
2023-01-18T03:39:10.850Z,91896.88
2023-01-18T03:41:41.659Z,91906.31
2023-01-18T03:44:32.227Z,91913.81
2023-01-18T03:46:59.277Z,91925.72
2023-01-18T03:49:27.815Z,91919.09
2023-01-18T03:52:16.722Z,91927.28
2023-01-18T03:54:48.067Z,91908.78
2023-01-18T03:57:36.043Z,91953.88
2023-01-18T04:00:06.196Z,91969.28
2023-01-18T04:02:41.337Z,91946.84
2023-01-18T04:05:09.054Z,91905.41
2023-01-18T04:07:39.254Z,91934.44
2023-01-18T04:10:08.765Z,91935.09
2023-01-18T04:12:35.903Z,91970.44
2023-01-18T04:15:03.776Z,91952.38
2023-01-18T04:17:32.977Z,91979.22
2023-01-18T04:20:00.221Z,91938.13
2023-01-18T04:22:31.190Z,91968.88
2023-01-18T04:25:36.303Z,91941.50
2023-01-18T04:28:02.039Z,91938.94
2023-01-18T04:30:29.268Z,91933.13
2023-01-18T04:32:56.760Z,91926.72
2023-01-18T04:35:24.474Z,91919.56
2023-01-18T04:37:54.319Z,91927.00
2023-01-18T04:40:21.490Z,91915.88
2023-01-18T04:42:56.535Z,91900.06
2023-01-18T04:45:23.897Z,91885.28
2023-01-18T04:47:52.337Z,91915.09
2023-01-18T04:50:19.484Z,91920.25
2023-01-18T04:52:46.627Z,91920.25
2023-01-18T04:55:16.231Z,91872.16
2023-01-18T04:57:46.500Z,91882.47
2023-01-18T05:00:16.627Z,91872.50
2023-01-18T05:02:43.982Z,91832.44
2023-01-18T05:05:11.201Z,91854.88
2023-01-18T05:07:38.278Z,91869.25
2023-01-18T05:10:05.975Z,91856.78
2023-01-18T05:12:33.310Z,91879.88
2023-01-18T05:15:00.427Z,91890.91
2023-01-18T05:17:36.895Z,91917.13
2023-01-18T05:20:08.338Z,91894.50
2023-01-18T05:22:37.481Z,91931.00
2023-01-18T05:25:05.545Z,91894.63
2023-01-18T05:27:33.424Z,91907.72
2023-01-18T05:30:04.722Z,91869.81
2023-01-18T05:32:32.889Z,91885.88
2023-01-18T05:35:00.309Z,91825.50
2023-01-18T05:37:30.559Z,91899.56
2023-01-18T05:39:57.818Z,91978.59
2023-01-18T05:42:25.028Z,91933.25
2023-01-18T05:44:56.369Z,91997.34
2023-01-18T05:47:23.299Z,91947.97
2023-01-18T05:49:52.583Z,91950.78
2023-01-18T05:52:22.265Z,91933.38
2023-01-18T05:54:49.281Z,91958.66
2023-01-18T05:57:19.520Z,91957.28
2023-01-18T05:59:46.814Z,91971.97
2023-01-18T06:02:14.049Z,91976.22
2023-01-18T06:04:41.353Z,91987.34
2023-01-18T06:07:09.408Z,91948.06
2023-01-18T06:09:42.967Z,91964.13
2023-01-18T06:12:10.616Z,91974.44
2023-01-18T06:14:39.839Z,91972.09
2023-01-18T06:17:11.907Z,92012.63
2023-01-18T06:19:39.060Z,91991.59
2023-01-18T06:22:06.111Z,92025.88
2023-01-18T06:24:33.459Z,91973.75
2023-01-18T06:27:04.343Z,91984.75
2023-01-18T06:29:36.614Z,92010.78
2023-01-18T06:32:03.827Z,92027.97
2023-01-18T06:34:34.161Z,92011.25
2023-01-18T06:37:01.247Z,92019.22
2023-01-18T06:39:28.478Z,92032.13
2023-01-18T06:41:55.547Z,92026.25
2023-01-18T06:44:22.598Z,92032.66
2023-01-18T06:46:50.911Z,92006.59
2023-01-18T06:49:23.209Z,92007.59
2023-01-18T06:51:53.198Z,92099.31
2023-01-18T06:54:20.272Z,92038.72
2023-01-18T06:56:48.456Z,91994.41
2023-01-18T06:59:19.529Z,91992.84
2023-01-18T07:01:48.821Z,92005.28
2023-01-18T07:04:16.146Z,92039.44
2023-01-18T07:06:43.208Z,92070.63
2023-01-18T07:09:13.772Z,91976.81
2023-01-18T07:11:43.453Z,92072.91
2023-01-18T07:14:13.481Z,91954.28
2023-01-18T07:16:59.117Z,92006.25
2023-01-18T07:19:26.481Z,91973.06
2023-01-18T07:21:58.877Z,92018.69
2023-01-18T07:24:33.578Z,92021.00
2023-01-18T07:27:03.467Z,91911.63
2023-01-18T07:29:31.214Z,91950.03
2023-01-18T07:31:58.595Z,91992.28
2023-01-18T07:34:25.558Z,92076.91
2023-01-18T07:36:52.870Z,91984.44
2023-01-18T07:39:22.661Z,91973.78
2023-01-18T07:41:49.896Z,91971.63
2023-01-18T07:44:26.575Z,92005.88
2023-01-18T07:46:53.701Z,92051.69
2023-01-18T07:49:23.876Z,92000.75
2023-01-18T07:51:53.875Z,92008.38
2023-01-18T07:54:20.800Z,92086.03
2023-01-18T07:56:47.724Z,92015.28
2023-01-18T07:59:16.130Z,92096.47
2023-01-18T08:01:44.962Z,92058.97
2023-01-18T08:04:12.209Z,92057.41
2023-01-18T08:06:39.215Z,92128.59
2023-01-18T08:09:06.916Z,92138.13
2023-01-18T08:11:35.908Z,92092.50
2023-01-18T08:14:05.703Z,92138.16
2023-01-18T08:16:33.114Z,92099.56
2023-01-18T08:19:03.930Z,92127.41
2023-01-18T08:21:32.126Z,92125.25
2023-01-18T08:23:59.084Z,92175.06
2023-01-18T08:26:26.187Z,92163.75
2023-01-18T08:28:53.268Z,92178.28
2023-01-18T08:31:21.571Z,92155.38
2023-01-18T08:33:50.073Z,92121.16
2023-01-18T08:36:20.445Z,92125.88
2023-01-18T08:38:53.678Z,92098.84
2023-01-18T08:41:28.711Z,92141.84
2023-01-18T08:43:59.899Z,92115.81
2023-01-18T08:46:27.197Z,92100.28
2023-01-18T08:49:01.829Z,92122.72
2023-01-18T08:51:30.161Z,92120.59
2023-01-18T08:54:00.097Z,92114.59
2023-01-18T08:56:27.596Z,92099.84
2023-01-18T08:58:54.872Z,92154.00
2023-01-18T09:01:27.267Z,92096.88
2023-01-18T09:03:56.018Z,92071.94
2023-01-18T09:06:23.487Z,92088.66
2023-01-18T09:08:58.592Z,92110.91
2023-01-18T09:11:26.346Z,92119.41
2023-01-18T09:14:01.084Z,92148.78
2023-01-18T09:16:29.746Z,92163.31
2023-01-18T09:18:57.688Z,92125.94
2023-01-18T09:21:28.769Z,92165.81
2023-01-18T09:23:59.821Z,92175.31
2023-01-18T09:26:28.018Z,92169.66
2023-01-18T09:28:55.136Z,92186.19
2023-01-18T09:31:27.866Z,92212.63
2023-01-18T09:34:17.956Z,92188.31
2023-01-18T09:36:58.361Z,92198.72
2023-01-18T09:39:28.386Z,92186.41
2023-01-18T09:41:57.337Z,92198.38
2023-01-18T09:44:29.692Z,92191.28
2023-01-18T09:47:01.537Z,92193.88
2023-01-18T09:50:01.160Z,92183.88
2023-01-18T09:53:09.788Z,92172.31
2023-01-18T09:55:59.797Z,92202.09
2023-01-18T09:58:52.368Z,92192.69
2023-01-18T10:01:22.863Z,92185.94
2023-01-18T10:03:58.882Z,92187.66
2023-01-18T10:06:30.732Z,92159.69
2023-01-18T10:09:03.158Z,92178.78
2023-01-18T10:11:45.031Z,92156.50
2023-01-18T10:14:24.588Z,92175.00
2023-01-18T10:16:59.933Z,92206.66
2023-01-18T10:19:31.838Z,92144.38
2023-01-18T10:22:29.467Z,92154.38
2023-01-18T10:25:02.500Z,92142.91
2023-01-18T10:27:38.337Z,92149.13
2023-01-18T10:30:40.925Z,92168.41
2023-01-18T10:33:23.192Z,92209.31
2023-01-18T10:35:57.123Z,92233.41
2023-01-18T10:38:26.399Z,92192.50
2023-01-18T10:41:01.600Z,92199.47
2023-01-18T10:43:31.214Z,92225.19
2023-01-18T10:46:02.590Z,92222.91
2023-01-18T10:48:35.482Z,92230.91
2023-01-18T10:51:12.972Z,92231.09
2023-01-18T10:53:41.316Z,92273.47
2023-01-18T10:56:14.472Z,92240.81
2023-01-18T10:59:03.172Z,92252.28
2023-01-18T11:01:36.250Z,92243.47
2023-01-18T11:04:08.366Z,92257.47
2023-01-18T11:06:56.593Z,92220.09
2023-01-18T11:09:46.378Z,92241.13
2023-01-18T11:12:41.262Z,92204.84
2023-01-18T11:15:14.464Z,92219.66
2023-01-18T11:17:47.338Z,92219.50
2023-01-18T11:20:23.413Z,92216.47
2023-01-18T11:22:59.187Z,92181.28
2023-01-18T11:25:27.830Z,92213.25
2023-01-18T11:28:04.866Z,92337.53
2023-01-18T11:30:35.813Z,92198.03
2023-01-18T11:33:04.025Z,92199.25
2023-01-18T11:35:36.665Z,92195.06
2023-01-18T11:38:10.892Z,92204.13
2023-01-18T11:40:39.335Z,92200.81
2023-01-18T11:43:24.839Z,92207.53
2023-01-18T11:45:59.607Z,92188.78
2023-01-18T11:48:30.768Z,92188.31
2023-01-18T11:51:01.567Z,92202.03
2023-01-18T11:53:51.664Z,92190.22
2023-01-18T11:56:33.156Z,92174.63
2023-01-18T11:59:01.273Z,92198.41
2023-01-18T12:01:37.578Z,92179.38
2023-01-18T12:04:12.115Z,92187.63
2023-01-18T12:06:41.887Z,92193.44
2023-01-18T12:09:34.991Z,92194.06
2023-01-18T12:12:19.285Z,92249.94
2023-01-18T12:14:49.599Z,92208.47
2023-01-18T12:17:36.876Z,92211.78
2023-01-18T12:20:08.719Z,92195.19
2023-01-18T12:22:54.390Z,92203.91
2023-01-18T12:26:10.625Z,92221.59
2023-01-18T12:29:14.305Z,92241.41
2023-01-18T12:32:06.336Z,92236.25
2023-01-18T12:34:54.254Z,92246.72
2023-01-18T12:37:27.438Z,92213.63
2023-01-18T12:40:38.953Z,92240.06
2023-01-18T12:43:06.421Z,92236.34
2023-01-18T12:45:36.032Z,92252.66
2023-01-18T12:48:14.767Z,92256.28
2023-01-18T12:50:43.960Z,92268.88
2023-01-18T12:53:15.338Z,92273.94
2023-01-18T12:55:47.484Z,92280.34
2023-01-18T12:58:19.803Z,92290.59
2023-01-18T13:00:56.380Z,92285.13
2023-01-18T13:03:28.891Z,92314.97
2023-01-18T13:06:04.254Z,92282.66
2023-01-18T13:08:52.876Z,92287.38
2023-01-18T13:11:23.831Z,92290.88
2023-01-18T13:13:55.888Z,92306.81
2023-01-18T13:16:58.560Z,92296.34
2023-01-18T13:20:00.491Z,92263.84
2023-01-18T13:22:43.550Z,92296.19
2023-01-18T13:25:26.637Z,92276.53
2023-01-18T13:28:04.164Z,92276.31
2023-01-18T13:30:33.534Z,92294.41
2023-01-18T13:33:02.494Z,92317.47
2023-01-18T13:35:38.660Z,92354.44
2023-01-18T13:38:13.176Z,92350.22
2023-01-18T13:40:42.883Z,92330.75
2023-01-18T13:43:36.277Z,92326.50
2023-01-18T13:46:08.385Z,92355.53
2023-01-18T13:49:02.705Z,92335.59
2023-01-18T13:51:37.158Z,92347.97
2023-01-18T13:54:04.700Z,92378.97
2023-01-18T13:56:36.833Z,92351.09
2023-01-18T13:59:12.766Z,92376.94
2023-01-18T14:01:43.212Z,92368.53
2023-01-18T14:04:19.389Z,92363.94
2023-01-18T14:06:46.980Z,92377.44
2023-01-18T14:09:16.184Z,92379.03
2023-01-18T14:11:51.380Z,92375.22
2023-01-18T14:14:18.488Z,92401.50
2023-01-18T14:17:04.748Z,92407.28
2023-01-18T14:19:39.630Z,92413.66
2023-01-18T14:22:28.457Z,92436.38
2023-01-18T14:25:33.870Z,92440.94
2023-01-18T14:28:13.876Z,92427.88
2023-01-18T14:30:41.654Z,92433.41
2023-01-18T14:33:27.263Z,92423.69
2023-01-18T14:35:58.596Z,92442.75
2023-01-18T14:38:26.058Z,92463.66
2023-01-18T14:40:56.175Z,92463.44
2023-01-18T14:43:32.279Z,92459.06
2023-01-18T14:46:17.145Z,92470.03
2023-01-18T14:48:54.359Z,92455.53
2023-01-18T14:51:23.979Z,92472.84
2023-01-18T14:54:00.554Z,92455.75
2023-01-18T14:56:33.425Z,92460.09
2023-01-18T14:59:05.430Z,92460.94
2023-01-18T15:01:42.286Z,92466.09
2023-01-18T15:04:21.009Z,92461.09
2023-01-18T15:06:52.116Z,92480.53
2023-01-18T15:09:21.462Z,92472.78
2023-01-18T15:11:49.604Z,92492.31
2023-01-18T15:14:28.261Z,92466.91
2023-01-18T15:16:56.396Z,92474.81
2023-01-18T15:19:36.581Z,92460.09
2023-01-18T15:22:08.491Z,92465.47
2023-01-18T15:24:40.904Z,92457.31
2023-01-18T15:27:16.325Z,92468.69
2023-01-18T15:29:48.709Z,92469.66
2023-01-18T15:32:20.980Z,92478.84
2023-01-18T15:34:54.524Z,92461.75
2023-01-18T15:37:32.481Z,92471.66
2023-01-18T15:40:07.058Z,92480.06
2023-01-18T15:42:47.160Z,92465.19
2023-01-18T15:45:22.174Z,92492.25
2023-01-18T15:47:57.727Z,92493.19
2023-01-18T15:50:31.905Z,92483.28
2023-01-18T15:53:14.462Z,92476.75
2023-01-18T15:55:47.118Z,92496.03
2023-01-18T15:58:37.454Z,92473.41
2023-01-18T16:01:18.404Z,92484.91
2023-01-18T16:03:48.371Z,92498.06
2023-01-18T16:06:34.437Z,92468.09
2023-01-18T16:09:12.806Z,92484.84
2023-01-18T16:11:48.667Z,92486.78
2023-01-18T16:14:27.963Z,92503.66
2023-01-18T16:16:59.588Z,92525.41
2023-01-18T16:19:29.251Z,92493.59
2023-01-18T16:22:04.807Z,92490.16
2023-01-18T16:24:40.232Z,92502.66
2023-01-18T16:27:11.771Z,92492.97
2023-01-18T16:29:41.220Z,92485.66
2023-01-18T16:32:21.416Z,92500.44
2023-01-18T16:34:48.835Z,92487.94
2023-01-18T16:37:25.110Z,92501.41
2023-01-18T16:39:56.831Z,92509.25
2023-01-18T16:42:37.573Z,92491.47
2023-01-18T16:45:08.232Z,92532.50
2023-01-18T16:47:35.467Z,92514.88
2023-01-18T16:50:05.220Z,92518.94
2023-01-18T16:52:32.363Z,92515.19
2023-01-18T16:54:59.497Z,92498.53
2023-01-18T16:57:26.823Z,92502.84
2023-01-18T16:59:53.843Z,92516.97
2023-01-18T17:02:20.863Z,92502.00
2023-01-18T17:04:47.889Z,92509.34
2023-01-18T17:07:15.070Z,92519.31
2023-01-18T17:09:48.313Z,92486.22
2023-01-18T17:12:16.423Z,92499.94
2023-01-18T17:14:43.534Z,92490.41
2023-01-18T17:17:11.148Z,92519.84
2023-01-18T17:19:38.243Z,92506.72
2023-01-18T17:22:06.592Z,92502.38
2023-01-18T17:24:35.774Z,92510.19
2023-01-18T17:27:03.011Z,92496.47
2023-01-18T17:29:30.299Z,92503.44
2023-01-18T17:31:57.950Z,92508.44
2023-01-18T17:34:28.313Z,92507.22
2023-01-18T17:36:57.016Z,92511.41
2023-01-18T17:39:31.894Z,92512.97
2023-01-18T17:42:12.265Z,92524.63
2023-01-18T17:44:41.638Z,92501.81
2023-01-18T17:47:08.787Z,92522.50
2023-01-18T17:49:36.006Z,92532.38
2023-01-18T17:52:03.240Z,92520.25
2023-01-18T17:54:34.199Z,92530.25
2023-01-18T17:57:01.563Z,92537.56
2023-01-18T17:59:30.932Z,92543.72
2023-01-18T18:02:05.650Z,92514.78
2023-01-18T18:04:32.780Z,92528.53
2023-01-18T18:07:00.028Z,92539.72
2023-01-18T18:09:29.356Z,92555.25
2023-01-18T18:11:58.886Z,92538.63
2023-01-18T18:14:29.664Z,92561.06
2023-01-18T18:16:56.968Z,92564.03
2023-01-18T18:19:25.520Z,92557.47
2023-01-18T18:21:52.398Z,92575.22
2023-01-18T18:24:21.636Z,92551.44
2023-01-18T18:26:49.883Z,92564.81
2023-01-18T18:29:17.075Z,92550.34
2023-01-18T18:31:48.533Z,92570.59
2023-01-18T18:34:18.514Z,92564.47
2023-01-18T18:36:45.594Z,92555.59
2023-01-18T18:39:12.589Z,92554.09
2023-01-18T18:41:42.187Z,92564.44
2023-01-18T18:44:12.785Z,92586.44
2023-01-18T18:46:41.993Z,92573.56
2023-01-18T18:49:09.239Z,92590.47
2023-01-18T18:51:36.246Z,92591.72
2023-01-18T18:54:05.164Z,92580.03
2023-01-18T18:56:32.533Z,92576.88
2023-01-18T18:59:03.434Z,92585.41
2023-01-18T19:01:30.962Z,92589.53
2023-01-18T19:03:59.267Z,92604.84
2023-01-18T19:06:26.559Z,92598.69
2023-01-18T19:08:57.440Z,92590.78
2023-01-18T19:11:29.445Z,92598.09
2023-01-18T19:13:56.951Z,92619.09
2023-01-18T19:16:24.176Z,92625.25
2023-01-18T19:21:32.882Z,92623.03
2023-01-18T19:24:07.633Z,92614.50
2023-01-18T19:26:34.867Z,92601.44
2023-01-18T19:29:05.071Z,92610.94
2023-01-18T19:31:32.346Z,92610.78
2023-01-18T19:33:59.478Z,92619.28
2023-01-18T19:36:26.677Z,92609.78
2023-01-18T19:38:59.968Z,92627.59
2023-01-18T19:41:31.067Z,92593.50
2023-01-18T19:43:58.246Z,92623.72
2023-01-18T19:46:25.324Z,92602.13
2023-01-18T19:48:57.420Z,92612.00
2023-01-18T19:51:24.477Z,92614.34
2023-01-18T19:53:55.866Z,92626.06
2023-01-18T19:56:25.829Z,92629.22
2023-01-18T19:58:53.048Z,92630.94
2023-01-18T20:01:35.865Z,92645.75
2023-01-18T20:04:06.085Z,92644.75
2023-01-18T20:06:34.008Z,92652.47
2023-01-18T20:09:00.854Z,92651.28
2023-01-18T20:11:27.756Z,92642.16
2023-01-18T20:13:55.711Z,92643.75
2023-01-18T20:16:25.602Z,92651.66
2023-01-18T20:18:54.216Z,92632.84
2023-01-18T20:21:21.697Z,92641.31
2023-01-18T20:23:48.654Z,92643.19
2023-01-18T20:26:24.607Z,92649.25
2023-01-18T20:28:56.090Z,92647.56
2023-01-18T20:31:23.157Z,92625.34
2023-01-18T20:33:50.507Z,92635.97
2023-01-18T20:36:20.722Z,92636.09
2023-01-18T20:38:50.136Z,92661.94
2023-01-18T20:41:17.496Z,92614.91
2023-01-18T20:43:45.448Z,92616.28
2023-01-18T20:46:14.943Z,92612.34
2023-01-18T20:48:44.033Z,92616.59
2023-01-18T20:51:11.003Z,92616.09
2023-01-18T20:53:40.836Z,92615.34
2023-01-18T20:56:23.370Z,92628.00
2023-01-18T20:58:54.145Z,92629.16
2023-01-18T21:01:23.316Z,92612.69
2023-01-18T21:03:54.977Z,92610.00
2023-01-18T21:06:24.840Z,92598.47
2023-01-18T21:08:54.895Z,92602.44
2023-01-18T21:11:29.006Z,92600.84
2023-01-18T21:13:57.310Z,92631.78
2023-01-18T21:16:24.656Z,92608.81
2023-01-18T21:18:55.509Z,92594.09
2023-01-18T21:21:23.436Z,92601.44
2023-01-18T21:23:52.780Z,92614.75
2023-01-18T21:26:19.878Z,92604.44
2023-01-18T21:28:49.973Z,92607.34
2023-01-18T21:31:17.424Z,92589.06
2023-01-18T21:33:44.612Z,92565.03
2023-01-18T21:36:17.744Z,92580.44
2023-01-18T21:38:45.044Z,92570.19
2023-01-18T21:41:33.761Z,92577.56
2023-01-18T21:44:20.761Z,92563.88
2023-01-18T21:46:48.661Z,92527.78
2023-01-18T21:49:52.042Z,92597.88
2023-01-18T21:52:39.873Z,92531.25
2023-01-18T21:55:09.971Z,92538.41
2023-01-18T21:57:37.751Z,92558.63
2023-01-18T22:00:07.811Z,92536.06
2023-01-18T22:02:35.628Z,92543.63
2023-01-18T22:05:05.441Z,92556.28
2023-01-18T22:07:36.584Z,92571.84
2023-01-18T22:10:07.009Z,92562.47
2023-01-18T22:12:36.083Z,92554.06
2023-01-18T22:15:06.908Z,92569.03
2023-01-18T22:17:37.842Z,92565.28
2023-01-18T22:20:05.278Z,92551.28
2023-01-18T22:22:32.313Z,92556.66
2023-01-18T22:25:02.430Z,92538.81
2023-01-18T22:27:34.420Z,92553.34
2023-01-18T22:30:12.028Z,92519.59
2023-01-18T22:32:39.247Z,92506.59
2023-01-18T22:35:06.492Z,92516.16
2023-01-18T22:37:34.817Z,92508.19
2023-01-18T22:40:04.164Z,92478.16
2023-01-18T22:42:31.964Z,92475.41
2023-01-18T22:45:06.713Z,92491.47
2023-01-18T22:47:33.676Z,92490.03
2023-01-18T22:50:01.024Z,92485.03
2023-01-18T22:52:27.994Z,92487.97
2023-01-18T22:54:55.048Z,92533.34
2023-01-18T22:57:23.302Z,92545.66
2023-01-18T22:59:50.411Z,92478.47
2023-01-18T23:02:18.671Z,92478.25
2023-01-18T23:04:47.732Z,92508.34
2023-01-18T23:07:24.268Z,92516.09
2023-01-18T23:09:51.786Z,92521.63
2023-01-18T23:12:19.105Z,92489.25
2023-01-18T23:15:09.196Z,92475.53
2023-01-18T23:17:39.095Z,92440.91
2023-01-18T23:20:12.194Z,92455.19
2023-01-18T23:22:41.608Z,92482.13
2023-01-18T23:25:11.534Z,92477.41
2023-01-18T23:27:38.592Z,92431.22
2023-01-18T23:30:06.481Z,92477.59
2023-01-18T23:32:33.653Z,92479.03
2023-01-18T23:35:00.818Z,92467.75
2023-01-18T23:37:28.042Z,92464.31
2023-01-18T23:40:16.143Z,92481.59
2023-01-18T23:43:03.822Z,92511.25
2023-01-18T23:45:49.454Z,92508.66
2023-01-18T23:48:37.339Z,92497.59
2023-01-18T23:51:28.598Z,92506.34
2023-01-18T23:54:13.937Z,92449.13
2023-01-18T23:56:41.004Z,92491.31
2023-01-18T23:59:08.649Z,92528.50
